createdAt,value
2023-03-03T09:54:54.593Z,140721.19
2023-03-03T10:00:07.305Z,140772.81
2023-03-03T10:05:26.538Z,140760.53
2023-03-03T10:10:50.052Z,140781.41
2023-03-03T10:15:59.680Z,140806.00
2023-03-03T10:21:05.820Z,140786.31
2023-03-03T10:26:18.250Z,140783.84
2023-03-03T10:31:29.363Z,140759.31
2023-03-03T10:36:47.986Z,140692.91
2023-03-03T10:53:35.655Z,140790.00
2023-03-03T10:58:54.274Z,140845.31
2023-03-03T11:04:18.719Z,140847.78
2023-03-03T11:09:32.443Z,140904.34
2023-03-03T11:14:41.698Z,140931.41
2023-03-03T11:19:57.637Z,140909.25
2023-03-03T11:25:09.567Z,140874.84
2023-03-03T11:30:30.012Z,140855.13
2023-03-03T11:35:42.152Z,140916.63
2023-03-03T11:40:49.706Z,140850.22
2023-03-03T11:45:57.159Z,140924.03
2023-03-03T11:51:06.728Z,140944.91
2023-03-03T11:56:21.976Z,140948.66
2023-03-03T12:01:30.792Z,140921.59
2023-03-03T12:06:40.673Z,140823.19
2023-03-03T12:12:02.602Z,140847.78
2023-03-03T12:17:12.272Z,140937.53
2023-03-03T12:22:22.729Z,140952.34
2023-03-03T12:27:30.903Z,140973.22
2023-03-03T12:32:47.852Z,140951.09
2023-03-03T12:37:55.516Z,141018.75
2023-03-03T12:43:07.119Z,141088.94
2023-03-03T12:48:19.539Z,141108.59
2023-03-03T12:53:46.518Z,141109.81
2023-03-03T12:58:55.696Z,141058.16
2023-03-03T13:04:05.198Z,141088.94
2023-03-03T13:09:15.868Z,141095.06
2023-03-03T13:14:26.147Z,141085.19
2023-03-03T13:19:33.484Z,141074.13
2023-03-03T13:24:42.745Z,141113.56
2023-03-03T13:29:52.947Z,141113.56
2023-03-03T13:35:03.266Z,141127.03
2023-03-03T13:40:12.110Z,141103.66
2023-03-03T13:45:18.881Z,141085.19
2023-03-03T13:50:28.934Z,141124.56
2023-03-03T13:55:35.901Z,141187.34
2023-03-03T14:00:54.962Z,141184.88
2023-03-03T14:06:03.488Z,141144.28
2023-03-03T14:11:11.772Z,141063.06
2023-03-03T14:16:18.097Z,141166.41
2023-03-03T14:21:26.903Z,141183.66
2023-03-03T14:26:30.422Z,141177.50
2023-03-03T14:31:40.064Z,141251.38
2023-03-03T14:36:45.025Z,141230.47
2023-03-03T14:41:52.781Z,141205.84
2023-03-03T14:47:05.712Z,141267.41
2023-03-03T14:52:20.880Z,141279.69
2023-03-03T14:57:41.674Z,141308.03
2023-03-03T15:02:45.796Z,141348.72
2023-03-03T15:07:53.193Z,141345.03
2023-03-03T15:12:56.501Z,141362.25
2023-03-03T15:18:02.544Z,141338.88
2023-03-03T15:28:56.771Z,141324.06
2023-03-03T15:34:03.475Z,141287.13
2023-03-03T15:39:14.943Z,141306.78
2023-03-03T15:44:27.308Z,141298.19
2023-03-03T15:49:41.533Z,141253.88
2023-03-03T15:54:50.498Z,141250.13
2023-03-03T16:00:26.452Z,141239.06
2023-03-03T16:05:31.710Z,141234.16
2023-03-03T16:10:41.164Z,141230.47
2023-03-03T16:15:50.782Z,141210.75
2023-03-03T16:21:04.382Z,141199.69
2023-03-03T16:26:16.109Z,141183.66
2023-03-03T16:31:23.412Z,141152.88
2023-03-03T16:36:32.009Z,141097.53
2023-03-03T16:41:40.904Z,141054.44
2023-03-03T16:46:47.319Z,141004.00
2023-03-03T16:51:52.300Z,140947.41
2023-03-03T16:57:01.827Z,140909.25
2023-03-03T17:02:14.295Z,140852.69
2023-03-03T17:07:23.443Z,140836.72
2023-03-03T17:12:32.929Z,140807.22
2023-03-03T17:17:43.696Z,140785.09
2023-03-03T17:22:51.398Z,140780.22
2023-03-03T17:28:05.825Z,140759.31
2023-03-03T17:33:34.291Z,140755.63
2023-03-03T17:38:43.505Z,140775.25
2023-03-03T17:43:53.159Z,140815.81
2023-03-03T17:49:08.045Z,140852.69
2023-03-03T17:54:27.379Z,140882.19
2023-03-03T17:59:42.942Z,140896.97
2023-03-03T18:05:02.884Z,140906.81
2023-03-03T18:10:24.912Z,140909.25
2023-03-03T18:15:38.397Z,140930.19
2023-03-03T18:20:51.363Z,140949.88
2023-03-03T18:25:57.797Z,140988.00
2023-03-03T18:31:02.820Z,141023.66
2023-03-03T18:36:13.899Z,141033.53
2023-03-03T18:41:23.759Z,141032.31
2023-03-03T18:46:47.442Z,141013.84
2023-03-03T18:51:53.502Z,141018.75
2023-03-03T18:57:13.481Z,141024.91
2023-03-03T19:02:21.436Z,141004.00
2023-03-03T19:07:27.895Z,141005.25
2023-03-03T19:12:55.373Z,140995.38
2023-03-03T19:17:59.192Z,141017.53
2023-03-03T19:23:06.517Z,140997.81
2023-03-03T19:28:27.483Z,141008.94
2023-03-03T19:33:43.883Z,141015.06
2023-03-03T19:38:58.271Z,141006.47
2023-03-03T19:44:09.886Z,141033.53
2023-03-03T19:49:20.539Z,141026.13
2023-03-03T19:54:37.250Z,141053.19
2023-03-03T19:59:44.916Z,141061.84
2023-03-03T20:04:57.191Z,141069.22
2023-03-03T20:10:08.603Z,141098.75
2023-03-03T20:15:15.277Z,141122.09
2023-03-03T20:20:33.462Z,141111.03
2023-03-03T20:25:40.922Z,141133.16
2023-03-03T20:30:48.837Z,141106.13
2023-03-03T20:35:58.298Z,141058.16
2023-03-03T20:41:09.676Z,140995.38
2023-03-03T20:46:18.644Z,141040.91
2023-03-03T20:51:26.544Z,141050.75
2023-03-03T20:56:35.595Z,141060.63
2023-03-03T21:01:44.727Z,140988.00
2023-03-03T21:06:51.208Z,140992.91
2023-03-03T21:11:56.371Z,140989.22
2023-03-03T21:17:02.729Z,141034.78
2023-03-03T21:22:11.067Z,140989.22
2023-03-03T21:27:29.171Z,140970.75
2023-03-03T21:32:37.159Z,140958.47
2023-03-03T21:37:45.764Z,140985.53
2023-03-03T21:42:50.682Z,141031.09
2023-03-03T21:47:55.157Z,140997.81
2023-03-03T21:52:58.534Z,140978.16
2023-03-03T21:58:03.207Z,140970.75
2023-03-03T22:03:08.574Z,140971.97
2023-03-03T22:08:14.119Z,141004.00
2023-03-03T22:13:20.989Z,140964.63
2023-03-03T22:18:24.352Z,140969.53
2023-03-03T22:23:27.717Z,140942.47
2023-03-03T22:28:32.337Z,140951.09
2023-03-03T22:33:35.799Z,140911.72
2023-03-03T22:38:40.035Z,140942.47
